sensor_id;sensor_type;location;lat;lon;timestamp;P1;durP1;ratioP1;P2;durP2;ratioP2
71665;SDS011;59503;53.486;10.196;2023-11-19T00:00:10;21.17;;;7.72;;
71665;SDS011;59503;53.486;10.196;2023-11-19T00:02:37;24.33;;;8.40;;
71665;SDS011;59503;53.486;10.196;2023-11-19T00:05:03;26.25;;;9.15;;
71665;SDS011;59503;53.486;10.196;2023-11-19T00:07:29;20.37;;;7.60;;
71665;SDS011;59503;53.486;10.196;2023-11-19T00:09:55;25.00;;;7.72;;
71665;SDS011;59503;53.486;10.196;2023-11-19T00:12:21;27.83;;;8.17;;
71665;SDS011;59503;53.486;10.196;2023-11-19T00:14:47;17.65;;;6.97;;
71665;SDS011;59503;53.486;10.196;2023-11-19T00:17:13;22.13;;;7.80;;
71665;SDS011;59503;53.486;10.196;2023-11-19T00:19:38;19.43;;;7.33;;
71665;SDS011;59503;53.486;10.196;2023-11-19T00:22:03;17.33;;;7.00;;
71665;SDS011;59503;53.486;10.196;2023-11-19T00:24:29;17.63;;;6.57;;
71665;SDS011;59503;53.486;10.196;2023-11-19T00:26:55;17.10;;;6.63;;
71665;SDS011;59503;53.486;10.196;2023-11-19T00:29:21;16.70;;;5.67;;
71665;SDS011;59503;53.486;10.196;2023-11-19T00:31:47;14.23;;;5.18;;
71665;SDS011;59503;53.486;10.196;2023-11-19T00:34:12;15.53;;;6.03;;
71665;SDS011;59503;53.486;10.196;2023-11-19T00:36:38;16.80;;;5.93;;
71665;SDS011;59503;53.486;10.196;2023-11-19T00:39:04;15.80;;;6.10;;
71665;SDS011;59503;53.486;10.196;2023-11-19T00:41:30;12.23;;;5.32;;
71665;SDS011;59503;53.486;10.196;2023-11-19T00:43:56;20.90;;;5.40;;
71665;SDS011;59503;53.486;10.196;2023-11-19T00:46:21;11.53;;;5.27;;
71665;SDS011;59503;53.486;10.196;2023-11-19T00:48:48;12.70;;;4.90;;
71665;SDS011;59503;53.486;10.196;2023-11-19T00:51:14;12.43;;;4.75;;
71665;SDS011;59503;53.486;10.196;2023-11-19T00:53:39;10.93;;;4.90;;
71665;SDS011;59503;53.486;10.196;2023-11-19T00:56:05;12.68;;;4.97;;
71665;SDS011;59503;53.486;10.196;2023-11-19T00:58:30;12.80;;;4.43;;
71665;SDS011;59503;53.486;10.196;2023-11-19T01:00:57;10.77;;;4.10;;
71665;SDS011;59503;53.486;10.196;2023-11-19T01:03:22;14.73;;;4.50;;
71665;SDS011;59503;53.486;10.196;2023-11-19T01:05:48;14.27;;;4.45;;
71665;SDS011;59503;53.486;10.196;2023-11-19T01:08:13;13.77;;;3.80;;
71665;SDS011;59503;53.486;10.196;2023-11-19T01:10:39;11.20;;;4.20;;
71665;SDS011;59503;53.486;10.196;2023-11-19T01:13:05;9.20;;;3.97;;
71665;SDS011;59503;53.486;10.196;2023-11-19T01:15:33;9.43;;;3.73;;
71665;SDS011;59503;53.486;10.196;2023-11-19T01:17:59;12.10;;;3.77;;
71665;SDS011;59503;53.486;10.196;2023-11-19T01:20:27;10.98;;;3.65;;
71665;SDS011;59503;53.486;10.196;2023-11-19T01:22:52;9.67;;;3.80;;
71665;SDS011;59503;53.486;10.196;2023-11-19T01:25:18;8.87;;;3.30;;
71665;SDS011;59503;53.486;10.196;2023-11-19T01:27:43;7.10;;;3.50;;
71665;SDS011;59503;53.486;10.196;2023-11-19T01:30:09;7.30;;;3.63;;
71665;SDS011;59503;53.486;10.196;2023-11-19T01:32:38;7.65;;;3.38;;
71665;SDS011;59503;53.486;10.196;2023-11-19T01:35:03;7.88;;;3.00;;
71665;SDS011;59503;53.486;10.196;2023-11-19T01:37:29;7.50;;;3.53;;
71665;SDS011;59503;53.486;10.196;2023-11-19T01:39:56;7.60;;;3.30;;
71665;SDS011;59503;53.486;10.196;2023-11-19T01:42:22;7.95;;;3.33;;
71665;SDS011;59503;53.486;10.196;2023-11-19T01:45:00;7.82;;;2.97;;
71665;SDS011;59503;53.486;10.196;2023-11-19T01:47:29;7.10;;;2.88;;
71665;SDS011;59503;53.486;10.196;2023-11-19T01:49:56;8.63;;;3.05;;
71665;SDS011;59503;53.486;10.196;2023-11-19T01:52:22;12.43;;;2.87;;
71665;SDS011;59503;53.486;10.196;2023-11-19T01:54:48;6.55;;;2.72;;
71665;SDS011;59503;53.486;10.196;2023-11-19T01:57:14;7.15;;;3.22;;
71665;SDS011;59503;53.486;10.196;2023-11-19T01:59:40;5.60;;;2.53;;
71665;SDS011;59503;53.486;10.196;2023-11-19T02:02:07;5.00;;;2.35;;
71665;SDS011;59503;53.486;10.196;2023-11-19T02:04:32;6.95;;;2.90;;
71665;SDS011;59503;53.486;10.196;2023-11-19T02:06:59;8.90;;;2.70;;
71665;SDS011;59503;53.486;10.196;2023-11-19T02:09:25;6.57;;;2.72;;
71665;SDS011;59503;53.486;10.196;2023-11-19T02:11:52;6.10;;;2.33;;
71665;SDS011;59503;53.486;10.196;2023-11-19T02:14:18;5.93;;;2.35;;
71665;SDS011;59503;53.486;10.196;2023-11-19T02:16:51;6.47;;;2.50;;
71665;SDS011;59503;53.486;10.196;2023-11-19T02:19:19;5.60;;;2.43;;
71665;SDS011;59503;53.486;10.196;2023-11-19T02:21:45;5.38;;;2.20;;
71665;SDS011;59503;53.486;10.196;2023-11-19T02:24:11;6.20;;;2.30;;
71665;SDS011;59503;53.486;10.196;2023-11-19T02:26:41;5.38;;;2.13;;
71665;SDS011;59503;53.486;10.196;2023-11-19T02:29:11;7.30;;;2.60;;
71665;SDS011;59503;53.486;10.196;2023-11-19T02:31:38;5.63;;;2.33;;
71665;SDS011;59503;53.486;10.196;2023-11-19T02:34:03;4.53;;;1.90;;
71665;SDS011;59503;53.486;10.196;2023-11-19T02:36:29;5.83;;;2.10;;
71665;SDS011;59503;53.486;10.196;2023-11-19T02:38:54;5.72;;;2.00;;
71665;SDS011;59503;53.486;10.196;2023-11-19T02:41:20;7.07;;;1.90;;
71665;SDS011;59503;53.486;10.196;2023-11-19T02:43:45;6.50;;;2.27;;
71665;SDS011;59503;53.486;10.196;2023-11-19T02:46:13;4.95;;;2.10;;
71665;SDS011;59503;53.486;10.196;2023-11-19T02:48:39;7.47;;;2.20;;
71665;SDS011;59503;53.486;10.196;2023-11-19T02:51:04;4.63;;;2.23;;
71665;SDS011;59503;53.486;10.196;2023-11-19T02:53:34;4.82;;;2.28;;
71665;SDS011;59503;53.486;10.196;2023-11-19T02:56:00;5.10;;;2.10;;
71665;SDS011;59503;53.486;10.196;2023-11-19T02:58:31;7.65;;;2.53;;
71665;SDS011;59503;53.486;10.196;2023-11-19T03:00:57;6.55;;;2.08;;
71665;SDS011;59503;53.486;10.196;2023-11-19T03:03:26;5.50;;;2.33;;
71665;SDS011;59503;53.486;10.196;2023-11-19T03:06:06;7.22;;;2.83;;
71665;SDS011;59503;53.486;10.196;2023-11-19T03:08:35;5.95;;;2.42;;
71665;SDS011;59503;53.486;10.196;2023-11-19T03:11:01;7.45;;;2.78;;
71665;SDS011;59503;53.486;10.196;2023-11-19T03:13:27;6.27;;;2.63;;
71665;SDS011;59503;53.486;10.196;2023-11-19T03:15:52;8.30;;;2.70;;
71665;SDS011;59503;53.486;10.196;2023-11-19T03:18:19;7.15;;;2.70;;
71665;SDS011;59503;53.486;10.196;2023-11-19T03:20:46;7.53;;;2.77;;
71665;SDS011;59503;53.486;10.196;2023-11-19T03:23:12;11.05;;;3.10;;
71665;SDS011;59503;53.486;10.196;2023-11-19T03:25:37;8.05;;;3.20;;
71665;SDS011;59503;53.486;10.196;2023-11-19T03:28:03;8.40;;;3.00;;
71665;SDS011;59503;53.486;10.196;2023-11-19T03:30:29;8.07;;;3.08;;
71665;SDS011;59503;53.486;10.196;2023-11-19T03:32:55;7.30;;;2.80;;
71665;SDS011;59503;53.486;10.196;2023-11-19T03:35:22;8.13;;;3.00;;
71665;SDS011;59503;53.486;10.196;2023-11-19T03:37:48;7.32;;;2.95;;
71665;SDS011;59503;53.486;10.196;2023-11-19T03:40:13;7.82;;;2.70;;
71665;SDS011;59503;53.486;10.196;2023-11-19T03:42:39;9.15;;;2.90;;
71665;SDS011;59503;53.486;10.196;2023-11-19T03:45:08;9.83;;;3.17;;
71665;SDS011;59503;53.486;10.196;2023-11-19T03:47:35;7.20;;;2.85;;
71665;SDS011;59503;53.486;10.196;2023-11-19T03:50:01;10.13;;;3.13;;
71665;SDS011;59503;53.486;10.196;2023-11-19T03:52:27;7.72;;;3.08;;
71665;SDS011;59503;53.486;10.196;2023-11-19T03:54:53;8.87;;;3.53;;
71665;SDS011;59503;53.486;10.196;2023-11-19T03:57:20;7.95;;;3.28;;
71665;SDS011;59503;53.486;10.196;2023-11-19T03:59:45;9.60;;;2.88;;
71665;SDS011;59503;53.486;10.196;2023-11-19T04:02:11;8.13;;;3.10;;
71665;SDS011;59503;53.486;10.196;2023-11-19T04:04:36;10.47;;;3.23;;
71665;SDS011;59503;53.486;10.196;2023-11-19T04:07:04;9.52;;;3.28;;
71665;SDS011;59503;53.486;10.196;2023-11-19T04:09:30;8.57;;;3.20;;
71665;SDS011;59503;53.486;10.196;2023-11-19T04:11:57;8.23;;;3.15;;
71665;SDS011;59503;53.486;10.196;2023-11-19T04:14:24;7.10;;;3.17;;
71665;SDS011;59503;53.486;10.196;2023-11-19T04:16:50;11.70;;;3.33;;
71665;SDS011;59503;53.486;10.196;2023-11-19T04:19:16;6.60;;;2.80;;
71665;SDS011;59503;53.486;10.196;2023-11-19T04:21:42;7.07;;;3.13;;
71665;SDS011;59503;53.486;10.196;2023-11-19T04:24:11;6.63;;;2.80;;
71665;SDS011;59503;53.486;10.196;2023-11-19T04:26:43;9.70;;;2.97;;
71665;SDS011;59503;53.486;10.196;2023-11-19T04:29:13;6.32;;;2.50;;
71665;SDS011;59503;53.486;10.196;2023-11-19T04:31:42;6.43;;;2.75;;
71665;SDS011;59503;53.486;10.196;2023-11-19T04:34:09;7.30;;;2.97;;
71665;SDS011;59503;53.486;10.196;2023-11-19T04:36:36;11.23;;;2.67;;
71665;SDS011;59503;53.486;10.196;2023-11-19T04:39:02;7.28;;;3.00;;
71665;SDS011;59503;53.486;10.196;2023-11-19T04:41:32;8.68;;;3.13;;
71665;SDS011;59503;53.486;10.196;2023-11-19T04:43:58;9.83;;;3.07;;
71665;SDS011;59503;53.486;10.196;2023-11-19T04:46:23;6.50;;;2.90;;
71665;SDS011;59503;53.486;10.196;2023-11-19T04:48:49;6.72;;;2.83;;
71665;SDS011;59503;53.486;10.196;2023-11-19T04:51:15;7.23;;;2.80;;
71665;SDS011;59503;53.486;10.196;2023-11-19T04:53:41;7.50;;;2.90;;
71665;SDS011;59503;53.486;10.196;2023-11-19T04:56:10;11.60;;;3.00;;
71665;SDS011;59503;53.486;10.196;2023-11-19T04:58:37;6.35;;;2.50;;
71665;SDS011;59503;53.486;10.196;2023-11-19T05:01:03;10.20;;;3.15;;
71665;SDS011;59503;53.486;10.196;2023-11-19T05:03:29;9.00;;;3.40;;
71665;SDS011;59503;53.486;10.196;2023-11-19T05:05:56;10.85;;;3.50;;
71665;SDS011;59503;53.486;10.196;2023-11-19T05:08:22;8.23;;;3.08;;
71665;SDS011;59503;53.486;10.196;2023-11-19T05:10:47;7.70;;;3.40;;
71665;SDS011;59503;53.486;10.196;2023-11-19T05:13:13;9.57;;;3.37;;
71665;SDS011;59503;53.486;10.196;2023-11-19T05:15:38;8.10;;;3.37;;
71665;SDS011;59503;53.486;10.196;2023-11-19T05:18:03;7.65;;;2.92;;
71665;SDS011;59503;53.486;10.196;2023-11-19T05:20:30;6.53;;;3.10;;
71665;SDS011;59503;53.486;10.196;2023-11-19T05:22:55;11.15;;;3.50;;
71665;SDS011;59503;53.486;10.196;2023-11-19T05:25:21;8.73;;;3.60;;
71665;SDS011;59503;53.486;10.196;2023-11-19T05:27:46;8.47;;;3.00;;
71665;SDS011;59503;53.486;10.196;2023-11-19T05:30:11;8.23;;;3.50;;
71665;SDS011;59503;53.486;10.196;2023-11-19T05:32:37;7.97;;;3.42;;
71665;SDS011;59503;53.486;10.196;2023-11-19T05:35:02;7.50;;;3.27;;
71665;SDS011;59503;53.486;10.196;2023-11-19T05:37:28;10.38;;;3.72;;
71665;SDS011;59503;53.486;10.196;2023-11-19T05:39:54;18.97;;;4.80;;
71665;SDS011;59503;53.486;10.196;2023-11-19T05:42:19;16.05;;;4.88;;
71665;SDS011;59503;53.486;10.196;2023-11-19T05:44:45;10.57;;;4.70;;
71665;SDS011;59503;53.486;10.196;2023-11-19T05:47:11;17.88;;;4.82;;
71665;SDS011;59503;53.486;10.196;2023-11-19T05:49:37;14.37;;;5.07;;
71665;SDS011;59503;53.486;10.196;2023-11-19T05:52:03;15.60;;;5.63;;
71665;SDS011;59503;53.486;10.196;2023-11-19T05:54:28;17.57;;;5.00;;
71665;SDS011;59503;53.486;10.196;2023-11-19T05:56:54;13.85;;;4.38;;
71665;SDS011;59503;53.486;10.196;2023-11-19T05:59:20;15.00;;;5.40;;
71665;SDS011;59503;53.486;10.196;2023-11-19T06:01:47;13.65;;;5.22;;
71665;SDS011;59503;53.486;10.196;2023-11-19T06:04:13;24.75;;;6.43;;
71665;SDS011;59503;53.486;10.196;2023-11-19T06:06:38;18.03;;;6.33;;
71665;SDS011;59503;53.486;10.196;2023-11-19T06:09:05;21.10;;;6.18;;
71665;SDS011;59503;53.486;10.196;2023-11-19T06:11:33;17.03;;;6.07;;
71665;SDS011;59503;53.486;10.196;2023-11-19T06:13:59;21.15;;;6.45;;
71665;SDS011;59503;53.486;10.196;2023-11-19T06:16:24;26.08;;;6.85;;
71665;SDS011;59503;53.486;10.196;2023-11-19T06:18:50;18.37;;;6.90;;
71665;SDS011;59503;53.486;10.196;2023-11-19T06:21:15;21.03;;;6.67;;
71665;SDS011;59503;53.486;10.196;2023-11-19T06:23:41;27.42;;;7.38;;
71665;SDS011;59503;53.486;10.196;2023-11-19T06:26:07;23.40;;;7.07;;
71665;SDS011;59503;53.486;10.196;2023-11-19T06:28:34;21.10;;;6.50;;
71665;SDS011;59503;53.486;10.196;2023-11-19T06:31:01;18.63;;;6.97;;
71665;SDS011;59503;53.486;10.196;2023-11-19T06:33:27;20.03;;;6.83;;
71665;SDS011;59503;53.486;10.196;2023-11-19T06:35:52;18.27;;;6.40;;
71665;SDS011;59503;53.486;10.196;2023-11-19T06:38:17;30.07;;;8.50;;
71665;SDS011;59503;53.486;10.196;2023-11-19T06:40:43;23.10;;;7.53;;
71665;SDS011;59503;53.486;10.196;2023-11-19T06:43:09;37.17;;;8.43;;
71665;SDS011;59503;53.486;10.196;2023-11-19T06:45:34;33.03;;;8.33;;
71665;SDS011;59503;53.486;10.196;2023-11-19T06:48:01;32.35;;;8.20;;
71665;SDS011;59503;53.486;10.196;2023-11-19T06:50:29;36.17;;;9.40;;
71665;SDS011;59503;53.486;10.196;2023-11-19T06:52:54;44.37;;;9.63;;
71665;SDS011;59503;53.486;10.196;2023-11-19T06:55:20;37.35;;;8.60;;
71665;SDS011;59503;53.486;10.196;2023-11-19T06:57:45;44.47;;;9.40;;
71665;SDS011;59503;53.486;10.196;2023-11-19T07:00:11;44.33;;;10.23;;
71665;SDS011;59503;53.486;10.196;2023-11-19T07:02:37;47.75;;;9.30;;
71665;SDS011;59503;53.486;10.196;2023-11-19T07:05:02;40.20;;;9.40;;
71665;SDS011;59503;53.486;10.196;2023-11-19T07:07:30;37.55;;;9.20;;
71665;SDS011;59503;53.486;10.196;2023-11-19T07:10:00;43.05;;;9.45;;
71665;SDS011;59503;53.486;10.196;2023-11-19T07:12:25;42.17;;;9.10;;
71665;SDS011;59503;53.486;10.196;2023-11-19T07:14:53;38.60;;;9.60;;
71665;SDS011;59503;53.486;10.196;2023-11-19T07:17:20;45.65;;;8.52;;
71665;SDS011;59503;53.486;10.196;2023-11-19T07:19:46;44.47;;;8.85;;
71665;SDS011;59503;53.486;10.196;2023-11-19T07:22:11;39.13;;;10.17;;
71665;SDS011;59503;53.486;10.196;2023-11-19T07:24:40;45.03;;;9.52;;
71665;SDS011;59503;53.486;10.196;2023-11-19T07:27:07;42.35;;;8.95;;
71665;SDS011;59503;53.486;10.196;2023-11-19T07:29:34;47.63;;;8.45;;
71665;SDS011;59503;53.486;10.196;2023-11-19T07:32:00;30.80;;;6.63;;
71665;SDS011;59503;53.486;10.196;2023-11-19T07:34:27;27.38;;;6.22;;
71665;SDS011;59503;53.486;10.196;2023-11-19T07:36:54;28.00;;;5.65;;
71665;SDS011;59503;53.486;10.196;2023-11-19T07:39:22;27.25;;;6.20;;
71665;SDS011;59503;53.486;10.196;2023-11-19T07:41:47;38.17;;;5.67;;
71665;SDS011;59503;53.486;10.196;2023-11-19T07:44:13;26.23;;;5.23;;
71665;SDS011;59503;53.486;10.196;2023-11-19T07:46:38;20.40;;;5.60;;
71665;SDS011;59503;53.486;10.196;2023-11-19T07:49:04;28.97;;;5.77;;
71665;SDS011;59503;53.486;10.196;2023-11-19T07:51:29;33.83;;;7.07;;
71665;SDS011;59503;53.486;10.196;2023-11-19T07:53:55;31.53;;;6.97;;
71665;SDS011;59503;53.486;10.196;2023-11-19T07:56:20;33.43;;;6.27;;
71665;SDS011;59503;53.486;10.196;2023-11-19T07:58:45;27.27;;;6.70;;
71665;SDS011;59503;53.486;10.196;2023-11-19T08:01:11;39.03;;;6.87;;
71665;SDS011;59503;53.486;10.196;2023-11-19T08:03:37;39.60;;;7.03;;
71665;SDS011;59503;53.486;10.196;2023-11-19T08:06:03;38.33;;;6.60;;
71665;SDS011;59503;53.486;10.196;2023-11-19T08:08:29;36.70;;;7.18;;
71665;SDS011;59503;53.486;10.196;2023-11-19T08:10:55;34.70;;;6.72;;
71665;SDS011;59503;53.486;10.196;2023-11-19T08:13:21;31.70;;;5.90;;
71665;SDS011;59503;53.486;10.196;2023-11-19T08:15:48;31.65;;;6.30;;
71665;SDS011;59503;53.486;10.196;2023-11-19T08:18:13;46.00;;;5.67;;
71665;SDS011;59503;53.486;10.196;2023-11-19T08:20:39;33.40;;;5.00;;
71665;SDS011;59503;53.486;10.196;2023-11-19T08:23:04;25.60;;;4.13;;
71665;SDS011;59503;53.486;10.196;2023-11-19T08:25:30;33.57;;;6.17;;
71665;SDS011;59503;53.486;10.196;2023-11-19T08:27:55;35.17;;;4.78;;
71665;SDS011;59503;53.486;10.196;2023-11-19T08:30:21;30.60;;;5.87;;
71665;SDS011;59503;53.486;10.196;2023-11-19T08:32:46;33.23;;;5.27;;
71665;SDS011;59503;53.486;10.196;2023-11-19T08:35:12;32.43;;;4.53;;
71665;SDS011;59503;53.486;10.196;2023-11-19T08:37:37;35.40;;;5.60;;
71665;SDS011;59503;53.486;10.196;2023-11-19T08:40:03;28.67;;;4.32;;
71665;SDS011;59503;53.486;10.196;2023-11-19T08:42:29;25.77;;;4.00;;
71665;SDS011;59503;53.486;10.196;2023-11-19T08:44:55;33.33;;;4.57;;
71665;SDS011;59503;53.486;10.196;2023-11-19T08:47:21;42.80;;;5.47;;
71665;SDS011;59503;53.486;10.196;2023-11-19T08:49:48;44.35;;;5.20;;
71665;SDS011;59503;53.486;10.196;2023-11-19T08:52:17;29.17;;;4.13;;
71665;SDS011;59503;53.486;10.196;2023-11-19T08:54:43;31.83;;;5.23;;
71665;SDS011;59503;53.486;10.196;2023-11-19T08:57:08;31.63;;;4.55;;
71665;SDS011;59503;53.486;10.196;2023-11-19T08:59:34;31.03;;;3.63;;
71665;SDS011;59503;53.486;10.196;2023-11-19T09:02:00;26.20;;;4.10;;
71665;SDS011;59503;53.486;10.196;2023-11-19T09:04:25;22.73;;;3.27;;
71665;SDS011;59503;53.486;10.196;2023-11-19T09:06:51;19.65;;;3.17;;
71665;SDS011;59503;53.486;10.196;2023-11-19T09:09:16;29.17;;;4.17;;
71665;SDS011;59503;53.486;10.196;2023-11-19T09:11:42;22.80;;;3.77;;
71665;SDS011;59503;53.486;10.196;2023-11-19T09:14:07;26.23;;;4.07;;
71665;SDS011;59503;53.486;10.196;2023-11-19T09:16:33;21.95;;;3.38;;
71665;SDS011;59503;53.486;10.196;2023-11-19T09:18:58;25.80;;;3.03;;
71665;SDS011;59503;53.486;10.196;2023-11-19T09:21:25;28.45;;;4.18;;
71665;SDS011;59503;53.486;10.196;2023-11-19T09:23:51;37.80;;;3.25;;
71665;SDS011;59503;53.486;10.196;2023-11-19T09:26:19;31.08;;;4.57;;
71665;SDS011;59503;53.486;10.196;2023-11-19T09:28:44;33.40;;;3.57;;
71665;SDS011;59503;53.486;10.196;2023-11-19T09:31:14;31.15;;;3.58;;
71665;SDS011;59503;53.486;10.196;2023-11-19T09:33:43;26.67;;;4.45;;
71665;SDS011;59503;53.486;10.196;2023-11-19T09:36:11;30.00;;;4.37;;
71665;SDS011;59503;53.486;10.196;2023-11-19T09:38:39;29.63;;;3.60;;
71665;SDS011;59503;53.486;10.196;2023-11-19T09:41:10;23.85;;;3.38;;
71665;SDS011;59503;53.486;10.196;2023-11-19T09:43:39;33.75;;;4.47;;
71665;SDS011;59503;53.486;10.196;2023-11-19T09:46:08;34.75;;;3.42;;
71665;SDS011;59503;53.486;10.196;2023-11-19T09:48:37;27.43;;;3.40;;
71665;SDS011;59503;53.486;10.196;2023-11-19T09:51:07;23.60;;;3.75;;
71665;SDS011;59503;53.486;10.196;2023-11-19T09:53:36;28.33;;;4.32;;
71665;SDS011;59503;53.486;10.196;2023-11-19T09:56:03;27.35;;;3.38;;
71665;SDS011;59503;53.486;10.196;2023-11-19T09:58:30;34.47;;;4.13;;
71665;SDS011;59503;53.486;10.196;2023-11-19T10:00:56;25.90;;;3.20;;
71665;SDS011;59503;53.486;10.196;2023-11-19T10:03:29;35.30;;;3.85;;
71665;SDS011;59503;53.486;10.196;2023-11-19T10:05:58;40.08;;;3.75;;
71665;SDS011;59503;53.486;10.196;2023-11-19T10:08:25;30.70;;;3.50;;
71665;SDS011;59503;53.486;10.196;2023-11-19T10:10:51;40.60;;;4.37;;
71665;SDS011;59503;53.486;10.196;2023-11-19T10:13:17;31.15;;;3.55;;
71665;SDS011;59503;53.486;10.196;2023-11-19T10:15:43;32.70;;;3.30;;
71665;SDS011;59503;53.486;10.196;2023-11-19T10:18:09;35.45;;;4.65;;
71665;SDS011;59503;53.486;10.196;2023-11-19T10:20:37;29.43;;;3.87;;
71665;SDS011;59503;53.486;10.196;2023-11-19T10:23:05;28.35;;;3.75;;
71665;SDS011;59503;53.486;10.196;2023-11-19T10:25:31;33.90;;;4.30;;
71665;SDS011;59503;53.486;10.196;2023-11-19T10:27:59;29.65;;;4.45;;
71665;SDS011;59503;53.486;10.196;2023-11-19T10:30:29;29.33;;;3.60;;
71665;SDS011;59503;53.486;10.196;2023-11-19T10:33:02;32.70;;;3.33;;
71665;SDS011;59503;53.486;10.196;2023-11-19T10:35:35;25.52;;;3.78;;
71665;SDS011;59503;53.486;10.196;2023-11-19T10:38:17;33.73;;;3.90;;
71665;SDS011;59503;53.486;10.196;2023-11-19T10:40:43;31.00;;;3.97;;
71665;SDS011;59503;53.486;10.196;2023-11-19T10:43:09;30.10;;;4.07;;
71665;SDS011;59503;53.486;10.196;2023-11-19T10:45:35;26.42;;;3.85;;
71665;SDS011;59503;53.486;10.196;2023-11-19T10:48:02;31.67;;;3.77;;
71665;SDS011;59503;53.486;10.196;2023-11-19T10:50:32;34.17;;;3.95;;
71665;SDS011;59503;53.486;10.196;2023-11-19T10:53:02;30.83;;;4.43;;
71665;SDS011;59503;53.486;10.196;2023-11-19T10:55:32;40.80;;;3.63;;
71665;SDS011;59503;53.486;10.196;2023-11-19T10:58:03;29.70;;;4.10;;
71665;SDS011;59503;53.486;10.196;2023-11-19T11:00:45;30.23;;;3.83;;
71665;SDS011;59503;53.486;10.196;2023-11-19T11:03:15;25.98;;;3.45;;
71665;SDS011;59503;53.486;10.196;2023-11-19T11:05:42;26.20;;;3.35;;
71665;SDS011;59503;53.486;10.196;2023-11-19T11:08:09;40.53;;;3.55;;
71665;SDS011;59503;53.486;10.196;2023-11-19T11:10:39;24.00;;;3.22;;
71665;SDS011;59503;53.486;10.196;2023-11-19T11:13:07;35.07;;;3.20;;
71665;SDS011;59503;53.486;10.196;2023-11-19T11:15:33;29.77;;;3.28;;
71665;SDS011;59503;53.486;10.196;2023-11-19T11:18:00;29.10;;;3.22;;
71665;SDS011;59503;53.486;10.196;2023-11-19T11:20:30;32.35;;;3.35;;
71665;SDS011;59503;53.486;10.196;2023-11-19T11:37:10;33.63;;;3.80;;
71665;SDS011;59503;53.486;10.196;2023-11-19T11:39:43;40.90;;;4.45;;
71665;SDS011;59503;53.486;10.196;2023-11-19T11:45:03;28.23;;;3.30;;
71665;SDS011;59503;53.486;10.196;2023-11-19T11:50:11;37.57;;;3.70;;
71665;SDS011;59503;53.486;10.196;2023-11-19T11:55:26;38.88;;;3.58;;
71665;SDS011;59503;53.486;10.196;2023-11-19T11:57:52;27.13;;;3.67;;
71665;SDS011;59503;53.486;10.196;2023-11-19T12:00:32;30.95;;;4.18;;
71665;SDS011;59503;53.486;10.196;2023-11-19T12:03:02;46.20;;;4.83;;
71665;SDS011;59503;53.486;10.196;2023-11-19T12:05:30;30.98;;;4.30;;
71665;SDS011;59503;53.486;10.196;2023-11-19T12:08:00;28.25;;;3.83;;
71665;SDS011;59503;53.486;10.196;2023-11-19T12:10:30;32.80;;;3.05;;
71665;SDS011;59503;53.486;10.196;2023-11-19T12:13:10;26.38;;;3.33;;
71665;SDS011;59503;53.486;10.196;2023-11-19T12:18:31;33.50;;;4.43;;
71665;SDS011;59503;53.486;10.196;2023-11-19T12:21:28;26.02;;;3.20;;
71665;SDS011;59503;53.486;10.196;2023-11-19T12:23:58;25.58;;;4.45;;
71665;SDS011;59503;53.486;10.196;2023-11-19T12:26:36;27.15;;;3.50;;
71665;SDS011;59503;53.486;10.196;2023-11-19T12:29:03;35.73;;;3.83;;
71665;SDS011;59503;53.486;10.196;2023-11-19T12:31:32;26.95;;;3.63;;
71665;SDS011;59503;53.486;10.196;2023-11-19T12:34:00;28.67;;;2.92;;
71665;SDS011;59503;53.486;10.196;2023-11-19T12:36:26;31.97;;;3.30;;
71665;SDS011;59503;53.486;10.196;2023-11-19T12:38:51;31.95;;;3.72;;
71665;SDS011;59503;53.486;10.196;2023-11-19T12:41:17;26.63;;;3.47;;
71665;SDS011;59503;53.486;10.196;2023-11-19T12:43:45;34.65;;;3.65;;
71665;SDS011;59503;53.486;10.196;2023-11-19T12:46:17;24.53;;;3.47;;
71665;SDS011;59503;53.486;10.196;2023-11-19T12:48:47;23.00;;;3.42;;
71665;SDS011;59503;53.486;10.196;2023-11-19T12:51:13;22.20;;;2.70;;
71665;SDS011;59503;53.486;10.196;2023-11-19T12:53:48;27.03;;;4.53;;
71665;SDS011;59503;53.486;10.196;2023-11-19T12:56:17;27.70;;;3.25;;
71665;SDS011;59503;53.486;10.196;2023-11-19T12:58:43;21.83;;;3.00;;
71665;SDS011;59503;53.486;10.196;2023-11-19T13:01:08;27.50;;;2.70;;
71665;SDS011;59503;53.486;10.196;2023-11-19T13:03:37;32.33;;;4.03;;
71665;SDS011;59503;53.486;10.196;2023-11-19T13:06:07;24.48;;;3.53;;
71665;SDS011;59503;53.486;10.196;2023-11-19T13:11:03;33.28;;;3.25;;
71665;SDS011;59503;53.486;10.196;2023-11-19T13:13:29;31.73;;;3.30;;
71665;SDS011;59503;53.486;10.196;2023-11-19T13:16:04;26.40;;;3.67;;
71665;SDS011;59503;53.486;10.196;2023-11-19T13:18:34;23.65;;;2.97;;
71665;SDS011;59503;53.486;10.196;2023-11-19T13:21:00;18.40;;;3.13;;
71665;SDS011;59503;53.486;10.196;2023-11-19T13:23:25;18.45;;;3.20;;
71665;SDS011;59503;53.486;10.196;2023-11-19T13:25:51;28.60;;;3.47;;
71665;SDS011;59503;53.486;10.196;2023-11-19T13:28:17;37.22;;;3.70;;
71665;SDS011;59503;53.486;10.196;2023-11-19T13:30:42;26.90;;;3.77;;
71665;SDS011;59503;53.486;10.196;2023-11-19T13:33:07;23.43;;;3.27;;
71665;SDS011;59503;53.486;10.196;2023-11-19T13:35:37;30.10;;;3.17;;
71665;SDS011;59503;53.486;10.196;2023-11-19T13:38:08;22.02;;;2.95;;
71665;SDS011;59503;53.486;10.196;2023-11-19T13:40:34;25.70;;;3.25;;
71665;SDS011;59503;53.486;10.196;2023-11-19T13:43:00;24.43;;;3.57;;
71665;SDS011;59503;53.486;10.196;2023-11-19T13:45:25;23.77;;;3.38;;
71665;SDS011;59503;53.486;10.196;2023-11-19T13:47:51;23.23;;;3.67;;
71665;SDS011;59503;53.486;10.196;2023-11-19T13:50:17;29.55;;;2.90;;
71665;SDS011;59503;53.486;10.196;2023-11-19T13:52:43;28.77;;;4.63;;
71665;SDS011;59503;53.486;10.196;2023-11-19T13:55:11;18.27;;;1.90;;
71665;SDS011;59503;53.486;10.196;2023-11-19T13:57:38;29.10;;;3.10;;
71665;SDS011;59503;53.486;10.196;2023-11-19T14:00:05;16.13;;;2.83;;
71665;SDS011;59503;53.486;10.196;2023-11-19T14:02:32;16.77;;;3.30;;
71665;SDS011;59503;53.486;10.196;2023-11-19T14:04:58;35.42;;;4.57;;
71665;SDS011;59503;53.486;10.196;2023-11-19T14:07:24;26.30;;;3.20;;
71665;SDS011;59503;53.486;10.196;2023-11-19T14:09:49;19.45;;;2.90;;
71665;SDS011;59503;53.486;10.196;2023-11-19T14:12:15;24.00;;;4.30;;
71665;SDS011;59503;53.486;10.196;2023-11-19T14:14:41;26.33;;;3.33;;
71665;SDS011;59503;53.486;10.196;2023-11-19T14:17:07;21.88;;;3.03;;
71665;SDS011;59503;53.486;10.196;2023-11-19T14:19:33;26.23;;;3.67;;
71665;SDS011;59503;53.486;10.196;2023-11-19T14:21:58;25.13;;;2.92;;
71665;SDS011;59503;53.486;10.196;2023-11-19T14:24:24;27.10;;;3.70;;
71665;SDS011;59503;53.486;10.196;2023-11-19T14:26:51;28.63;;;2.97;;
71665;SDS011;59503;53.486;10.196;2023-11-19T14:29:17;37.20;;;4.22;;
71665;SDS011;59503;53.486;10.196;2023-11-19T14:31:42;30.75;;;3.80;;
71665;SDS011;59503;53.486;10.196;2023-11-19T14:34:08;25.60;;;3.03;;
71665;SDS011;59503;53.486;10.196;2023-11-19T14:36:33;25.60;;;3.47;;
71665;SDS011;59503;53.486;10.196;2023-11-19T14:39:00;25.57;;;3.70;;
71665;SDS011;59503;53.486;10.196;2023-11-19T14:41:25;29.35;;;4.50;;
71665;SDS011;59503;53.486;10.196;2023-11-19T14:43:51;28.80;;;4.20;;
71665;SDS011;59503;53.486;10.196;2023-11-19T14:46:16;25.90;;;3.40;;
71665;SDS011;59503;53.486;10.196;2023-11-19T14:48:42;22.45;;;3.67;;
71665;SDS011;59503;53.486;10.196;2023-11-19T14:51:07;27.00;;;3.50;;